createdAt,value
2017-04-17T00:00:02.225Z,81
2017-04-17T00:01:05.317Z,81.5
2017-04-17T00:02:07.522Z,81.6
2017-04-17T00:03:10.103Z,81.5
2017-04-17T00:04:12.947Z,81.6
2017-04-17T00:05:15.420Z,81.4
2017-04-17T00:06:18.113Z,81.6
2017-04-17T00:07:20.457Z,81.8
2017-04-17T00:08:23.294Z,81.6
2017-04-17T00:09:26.131Z,81.6
2017-04-17T00:10:28.467Z,80.4
2017-04-17T00:11:31.607Z,81.1
2017-04-17T00:12:33.944Z,80.9
2017-04-17T00:13:36.301Z,81.4
2017-04-17T00:14:39.145Z,81.5
2017-04-17T00:15:41.481Z,81.8
2017-04-17T00:16:44.628Z,81.5
2017-04-17T00:17:46.970Z,81.6
2017-04-17T00:18:49.383Z,81.8
2017-04-17T00:19:51.734Z,81.5
2017-04-17T00:20:54.525Z,80.3
2017-04-17T00:21:57.672Z,81.4
2017-04-17T00:23:00.571Z,81.4
2017-04-17T00:24:02.408Z,81.2
2017-04-17T00:25:05.246Z,82
2017-04-17T00:26:07.582Z,81.5
2017-04-17T00:27:10.539Z,81.5
2017-04-17T00:28:12.741Z,81.3
2017-04-17T00:29:15.578Z,82
2017-04-17T00:30:17.914Z,81.3
2017-04-17T00:31:20.767Z,81.9
2017-04-17T00:32:23.361Z,81.3
2017-04-17T00:33:25.771Z,81.4
2017-04-17T00:34:28.613Z,81.8
2017-04-17T00:35:31.318Z,81.4
2017-04-17T00:36:33.704Z,81.7
2017-04-17T00:37:36.791Z,81.8
2017-04-17T00:38:39.133Z,81.7
2017-04-17T00:39:41.480Z,82.3
2017-04-17T00:40:44.321Z,82.2
2017-04-17T00:41:46.711Z,82.2
2017-04-17T00:42:49.855Z,82
2017-04-17T00:43:51.686Z,82.2
2017-04-17T00:44:54.524Z,82.6
2017-04-17T00:45:57.362Z,82.7
2017-04-17T00:46:59.564Z,82.7
2017-04-17T00:48:02.760Z,83
2017-04-17T00:49:05.095Z,83.5
2017-04-17T00:50:07.439Z,83.5
2017-04-17T00:51:10.688Z,83.6
2017-04-17T00:52:12.520Z,84.1
2017-04-17T00:53:15.484Z,83.3
2017-04-17T00:54:17.818Z,83.4
2017-04-17T00:55:20.667Z,84.1
2017-04-17T00:56:23.563Z,84
2017-04-17T00:57:25.900Z,85.2
2017-04-17T00:58:28.491Z,85.5
2017-04-17T00:59:30.895Z,85.5
2017-04-17T01:00:33.739Z,85.4
2017-04-17T01:01:36.280Z,85.8
2017-04-17T01:02:38.619Z,85.4
2017-04-17T01:03:41.714Z,86.2
2017-04-17T01:04:44.054Z,86.4
2017-04-17T01:05:46.399Z,86.8
2017-04-17T01:06:49.238Z,86.3
2017-04-17T01:07:51.578Z,85.9
2017-04-17T01:08:54.669Z,86.8
2017-04-17T01:09:57.003Z,86.9
2017-04-17T01:10:59.708Z,87.4
2017-04-17T01:12:02.042Z,87.5
2017-04-17T01:13:05.313Z,87.4
2017-04-17T01:14:07.468Z,87.3
2017-04-17T01:15:09.834Z,87.4
2017-04-17T01:16:12.673Z,87.4
2017-04-17T01:17:15.382Z,87.6
2017-04-17T01:18:17.719Z,87.5
2017-04-17T01:19:20.858Z,87.3
2017-04-17T01:20:23.194Z,87.8
2017-04-17T01:22:27.938Z,87.7
2017-04-17T01:24:33.435Z,87.4
2017-04-17T01:25:35.775Z,87.7
2017-04-17T01:26:38.631Z,87.7
2017-04-17T01:27:40.968Z,87.9
2017-04-17T01:28:43.810Z,88
2017-04-17T01:29:46.601Z,88
2017-04-17T01:30:48.803Z,87.7
2017-04-17T01:31:51.649Z,87.9
2017-04-17T01:32:53.978Z,88.6
2017-04-17T01:33:56.682Z,88.1
2017-04-17T01:34:59.774Z,88.3
2017-04-17T01:37:04.522Z,88.4
2017-04-17T01:38:06.723Z,88.6
2017-04-17T01:39:09.562Z,88.3
2017-04-17T01:40:12.699Z,88.3
2017-04-17T01:41:14.906Z,88.5
2017-04-17T01:42:17.613Z,88.4
2017-04-17T01:43:19.951Z,88.6
2017-04-17T01:44:22.795Z,88.4
2017-04-17T01:45:25.448Z,88.3
2017-04-17T01:46:27.646Z,88.2
2017-04-17T01:47:30.493Z,88.2
2017-04-17T01:48:32.835Z,88.3
2017-04-17T01:49:35.680Z,88.3
2017-04-17T01:50:38.318Z,88.3
2017-04-17T01:51:40.657Z,88.3
2017-04-17T01:52:43.489Z,88.5
2017-04-17T01:53:45.827Z,88.5
2017-04-17T01:54:48.579Z,88.6
2017-04-17T01:55:51.034Z,88.6
2017-04-17T01:56:53.870Z,88.6
2017-04-17T01:57:56.576Z,88.5
2017-04-17T01:58:58.909Z,88.4
2017-04-17T02:00:01.752Z,88.6
2017-04-17T02:01:04.342Z,88.3
2017-04-17T02:02:06.548Z,88.6
2017-04-17T02:03:09.388Z,88.7
2017-04-17T02:05:14.629Z,88.6
2017-04-17T02:06:17.217Z,88.5
2017-04-17T02:07:19.557Z,88.6
2017-04-17T02:08:22.411Z,88.8
2017-04-17T02:09:24.757Z,88.9
2017-04-17T02:10:27.478Z,88.7
2017-04-17T02:11:30.495Z,88.7
2017-04-17T02:12:32.854Z,88.9
2017-04-17T02:13:35.206Z,88.9
2017-04-17T02:14:37.566Z,88.8
2017-04-17T02:15:40.288Z,88.7
2017-04-17T02:16:43.392Z,88.9
2017-04-17T02:17:45.738Z,89
2017-04-17T02:18:48.090Z,89.1
2017-04-17T02:19:50.935Z,88.9
2017-04-17T02:20:53.341Z,89
2017-04-17T02:21:56.495Z,89
2017-04-17T02:22:58.201Z,88.9
2017-04-17T02:24:01.059Z,89.1
2017-04-17T02:25:03.906Z,89
2017-04-17T02:26:06.178Z,89
2017-04-17T02:27:09.584Z,88.9
2017-04-17T02:28:11.481Z,89.1
2017-04-17T02:29:14.336Z,89.1
2017-04-17T02:30:16.687Z,89.1
2017-04-17T02:31:19.540Z,89.1
2017-04-17T02:32:22.188Z,89
2017-04-17T02:33:24.532Z,89
2017-04-17T02:34:26.878Z,89.1
2017-04-17T02:35:29.728Z,89.1
2017-04-17T02:36:32.076Z,89.2
2017-04-17T02:37:35.177Z,89
2017-04-17T02:38:38.085Z,89
2017-04-17T02:39:39.931Z,89
2017-04-17T02:40:42.776Z,88.8
2017-04-17T02:41:45.328Z,89
2017-04-17T02:42:47.930Z,88.8
2017-04-17T02:43:50.272Z,89
2017-04-17T02:44:53.124Z,89
2017-04-17T02:45:55.467Z,89.2
2017-04-17T02:46:58.250Z,89.2
2017-04-17T02:48:00.715Z,89.1
2017-04-17T02:49:03.567Z,89.1
2017-04-17T02:50:05.910Z,88.8
2017-04-17T02:51:08.626Z,89
2017-04-17T02:52:10.972Z,89.1
2017-04-17T02:53:13.937Z,89
2017-04-17T02:54:16.428Z,89
2017-04-17T02:55:18.763Z,89.2
2017-04-17T02:57:24.022Z,89
2017-04-17T02:58:27.180Z,88.9
2017-04-17T03:00:31.934Z,89.1
2017-04-17T03:01:34.781Z,89.2
2017-04-17T03:02:37.183Z,89.2
2017-04-17T03:03:39.782Z,89.4
2017-04-17T03:04:42.130Z,89.4
2017-04-17T03:05:44.979Z,89.3
2017-04-17T03:06:47.324Z,89.1
2017-04-17T03:07:50.170Z,89.3
2017-04-17T03:08:52.775Z,89.2
2017-04-17T03:09:55.361Z,89.1
2017-04-17T03:10:57.711Z,89.1
2017-04-17T03:12:00.430Z,89.1
2017-04-17T03:13:03.291Z,89.2
2017-04-17T03:14:05.941Z,89
2017-04-17T03:15:08.285Z,88.8
2017-04-17T03:16:10.635Z,89
2017-04-17T03:17:13.481Z,89
2017-04-17T03:18:16.198Z,89.1
2017-04-17T03:19:18.795Z,89.2
2017-04-17T03:20:21.142Z,89.3
2017-04-17T03:21:23.987Z,89.2
2017-04-17T03:22:26.332Z,89.2
2017-04-17T03:23:29.184Z,89.3
2017-04-17T03:24:31.841Z,89.3
2017-04-17T03:25:34.595Z,89.2
2017-04-17T03:26:36.812Z,89.3
2017-04-17T03:27:39.527Z,89.3
2017-04-17T03:28:41.875Z,89.2
2017-04-17T03:29:44.982Z,89.1
2017-04-17T03:30:47.326Z,89.2
2017-04-17T03:31:49.666Z,88.9
2017-04-17T03:32:52.514Z,89.1
2017-04-17T03:33:54.864Z,89.2
2017-04-17T03:34:57.966Z,89.2
2017-04-17T03:36:00.174Z,89.2
2017-04-17T03:37:02.525Z,89.3
2017-04-17T03:38:05.245Z,89.2
2017-04-17T03:39:07.830Z,89.2
2017-04-17T03:40:10.938Z,89.2
2017-04-17T03:41:13.282Z,89.2
2017-04-17T03:42:15.632Z,89
2017-04-17T03:43:17.984Z,89.1
2017-04-17T03:44:20.835Z,88.8
2017-04-17T03:45:23.483Z,89
2017-04-17T03:46:25.827Z,89.1
2017-04-17T03:47:28.679Z,89.2
2017-04-17T03:48:31.025Z,89
2017-04-17T03:49:33.877Z,88.9
2017-04-17T03:50:36.655Z,88.9
2017-04-17T03:51:38.994Z,88.9
2017-04-17T03:52:41.344Z,88.9
2017-04-17T03:53:44.198Z,89
2017-04-17T03:54:46.544Z,89.1
2017-04-17T03:55:49.693Z,89.3
2017-04-17T03:56:52.039Z,89.3
2017-04-17T03:58:57.302Z,89.2
2017-04-17T03:59:59.656Z,89.3
2017-04-17T04:01:02.314Z,89.4
2017-04-17T04:02:04.661Z,89.2
2017-04-17T04:03:07.514Z,89.2
2017-04-17T04:04:09.861Z,89.2
2017-04-17T04:05:12.708Z,89.1
2017-04-17T04:06:15.729Z,89
2017-04-17T04:07:17.633Z,89.1
2017-04-17T04:08:20.488Z,89.3
2017-04-17T04:09:22.838Z,89.3
2017-04-17T04:10:25.693Z,89.2
2017-04-17T04:11:28.344Z,89.1
2017-04-17T04:12:30.689Z,89
2017-04-17T04:13:33.541Z,88.9
2017-04-17T04:14:35.889Z,89
2017-04-17T04:15:38.237Z,89.2
2017-04-17T04:16:41.393Z,89.2
2017-04-17T04:17:43.735Z,89.2
2017-04-17T04:18:46.217Z,89.1
2017-04-17T04:19:48.564Z,89.2
2017-04-17T04:20:51.416Z,89.3
2017-04-17T04:21:54.069Z,89.3
2017-04-17T04:22:56.420Z,89.1
2017-04-17T04:23:59.269Z,89
2017-04-17T04:25:01.616Z,89.2
2017-04-17T04:26:04.470Z,89.2
2017-04-17T04:27:06.985Z,88.9
2017-04-17T04:28:09.698Z,88.9
2017-04-17T04:29:12.048Z,88.9
2017-04-17T04:30:14.898Z,89.2
2017-04-17T04:31:17.247Z,89.3
2017-04-17T04:32:20.428Z,89.2
2017-04-17T04:33:22.271Z,88.8
2017-04-17T04:34:25.123Z,89
2017-04-17T04:35:27.470Z,88.9
2017-04-17T04:36:29.976Z,88.8
2017-04-17T04:37:33.130Z,89
2017-04-17T04:38:35.478Z,89
2017-04-17T04:39:37.822Z,89
2017-04-17T04:40:40.539Z,89.1
2017-04-17T04:41:43.397Z,89.2
2017-04-17T04:42:46.046Z,88.9
2017-04-17T04:43:48.267Z,88.9
2017-04-17T04:44:51.119Z,88.9
2017-04-17T04:45:53.467Z,88.9
2017-04-17T04:47:59.027Z,89
2017-04-17T04:50:03.779Z,88.7
2017-04-17T04:51:06.621Z,88.7
2017-04-17T04:52:08.963Z,88.7
2017-04-17T04:53:12.066Z,88.7
2017-04-17T04:54:14.413Z,88.7
2017-04-17T04:55:17.320Z,88.8
2017-04-17T04:56:19.165Z,88.8
2017-04-17T04:57:22.015Z,88.9
2017-04-17T04:58:24.664Z,89
2017-04-17T04:59:27.087Z,89.1
2017-04-17T05:00:29.510Z,88.7
2017-04-17T05:01:32.357Z,88.9
2017-04-17T05:02:34.767Z,89
2017-04-17T05:03:37.876Z,88.8
2017-04-17T05:04:40.226Z,89
2017-04-17T05:05:42.572Z,88.9
2017-04-17T05:06:45.484Z,89
2017-04-17T05:07:47.832Z,89
2017-04-17T05:08:50.431Z,88.9
2017-04-17T05:09:52.852Z,88.9
2017-04-17T05:10:55.704Z,88.8
2017-04-17T05:11:58.050Z,88.9
2017-04-17T05:13:00.898Z,88.8
2017-04-17T05:14:03.649Z,88.8
2017-04-17T05:15:05.994Z,88.9
2017-04-17T05:16:08.335Z,88.9
2017-04-17T05:17:11.176Z,88.9
2017-04-17T05:18:13.893Z,88.8
2017-04-17T05:19:16.546Z,88.8
2017-04-17T05:20:18.895Z,88.8
2017-04-17T05:21:21.240Z,88.9
2017-04-17T05:23:26.493Z,88.8
2017-04-17T05:24:29.653Z,88.9
2017-04-17T05:25:31.997Z,88.9
2017-04-17T05:26:34.344Z,88.8
2017-04-17T05:27:36.952Z,88.9
2017-04-17T05:28:39.802Z,88.7
2017-04-17T05:29:42.458Z,88.8
2017-04-17T05:30:44.804Z,88.7
2017-04-17T05:31:47.518Z,88.6
2017-04-17T05:32:49.867Z,88.6
2017-04-17T05:33:52.717Z,88.5
2017-04-17T05:34:55.234Z,88.3
2017-04-17T05:35:57.577Z,88.5
2017-04-17T05:37:00.426Z,88.5
2017-04-17T05:38:02.771Z,88.4
2017-04-17T05:39:05.620Z,88.4
2017-04-17T05:40:08.223Z,88.5
2017-04-17T05:41:10.605Z,88.4
2017-04-17T05:42:12.957Z,88.2
2017-04-17T05:43:15.807Z,88
2017-04-17T05:44:18.159Z,87.9
2017-04-17T05:45:21.315Z,88.2
2017-04-17T05:46:23.666Z,88.2
2017-04-17T05:47:25.883Z,88.4
2017-04-17T05:48:28.604Z,88.1
2017-04-17T05:49:31.460Z,87.7
2017-04-17T05:50:34.056Z,87.9
2017-04-17T05:51:36.265Z,87.8
2017-04-17T05:52:39.118Z,87.8
2017-04-17T05:53:41.469Z,87.8
2017-04-17T05:54:44.880Z,87.6
2017-04-17T05:55:47.035Z,87.5
2017-04-17T05:56:49.380Z,87.2
2017-04-17T05:57:51.794Z,87.2
2017-04-17T05:59:57.050Z,87.2
2017-04-17T06:01:00.200Z,87.3
2017-04-17T06:02:02.552Z,87.3
2017-04-17T06:03:04.902Z,87
2017-04-17T06:04:07.249Z,86.6
2017-04-17T06:05:09.960Z,86.8
2017-04-17T06:06:12.928Z,86.8
2017-04-17T06:07:15.277Z,86.7
2017-04-17T06:08:17.668Z,87.2
2017-04-17T06:09:20.518Z,86.6
2017-04-17T06:10:22.869Z,87
2017-04-17T06:12:28.424Z,86.8
2017-04-17T06:13:30.829Z,86.9
2017-04-17T06:14:33.176Z,86.7
2017-04-17T06:15:36.037Z,86.9
2017-04-17T06:16:38.953Z,87
2017-04-17T06:17:41.549Z,85.5
2017-04-17T06:18:43.896Z,86.2
2017-04-17T06:19:46.246Z,86.4
2017-04-17T06:20:49.131Z,86.6
2017-04-17T06:21:52.060Z,86.3
2017-04-17T06:22:54.067Z,85.8
2017-04-17T06:23:56.471Z,85.9
2017-04-17T06:24:59.320Z,85.9
2017-04-17T06:26:01.670Z,85.5
2017-04-17T06:27:04.519Z,85.2
2017-04-17T06:28:07.175Z,84.6
2017-04-17T06:29:09.521Z,85.3
2017-04-17T06:30:12.369Z,85.4
2017-04-17T06:31:14.579Z,85.1
2017-04-17T06:32:17.427Z,85.8
2017-04-17T06:33:20.075Z,85.4
2017-04-17T06:35:25.328Z,85.2
2017-04-17T06:36:28.235Z,84.8
2017-04-17T06:37:30.077Z,85
2017-04-17T06:38:33.178Z,85
2017-04-17T06:39:36.111Z,85.3
2017-04-17T06:40:37.957Z,84.5
2017-04-17T06:41:40.813Z,85.1
2017-04-17T06:42:43.163Z,84.7
2017-04-17T06:44:48.595Z,84.8
2017-04-17T06:45:50.943Z,84.5
2017-04-17T06:46:53.796Z,84.9
2017-04-17T06:47:56.143Z,84.1
2017-04-17T06:48:58.651Z,84.4
2017-04-17T06:50:01.802Z,84
2017-04-17T06:51:04.018Z,84.6
2017-04-17T06:52:06.372Z,84.3
2017-04-17T06:53:09.223Z,84.4
2017-04-17T06:54:11.565Z,84.7
2017-04-17T06:56:17.354Z,84.5
2017-04-17T06:57:19.695Z,84.7
2017-04-17T06:58:22.042Z,84.4
2017-04-17T06:59:24.389Z,84.2
2017-04-17T07:00:27.237Z,84.8
2017-04-17T07:01:29.903Z,84.6
2017-04-17T07:02:32.271Z,84.3
2017-04-17T07:03:35.129Z,84.5
2017-04-17T07:04:37.487Z,84.5
2017-04-17T07:05:40.345Z,84.5
2017-04-17T07:06:42.874Z,84.6
2017-04-17T07:07:45.784Z,84.2
2017-04-17T07:08:48.000Z,84
2017-04-17T07:09:50.355Z,83.6
2017-04-17T07:10:53.203Z,82.9
2017-04-17T07:11:55.853Z,83.8
2017-04-17T07:12:58.625Z,84
2017-04-17T07:14:00.976Z,83.5
2017-04-17T07:15:03.322Z,83.3
2017-04-17T07:16:05.918Z,83.1
2017-04-17T07:17:09.020Z,83.5
2017-04-17T07:18:11.366Z,82.8
2017-04-17T07:19:13.492Z,82.5
2017-04-17T07:20:16.215Z,82.7
2017-04-17T07:21:18.933Z,82.9
2017-04-17T07:22:22.090Z,82.4
2017-04-17T07:23:23.970Z,82.4
2017-04-17T07:24:26.825Z,82.1
2017-04-17T07:25:29.168Z,82.4
2017-04-17T07:26:32.021Z,81.8
2017-04-17T07:27:34.675Z,82.1
2017-04-17T07:29:39.958Z,82.3
2017-04-17T07:30:42.313Z,81.8
2017-04-17T07:31:44.523Z,82.5
2017-04-17T07:32:47.677Z,82.2
2017-04-17T07:34:52.433Z,82.7
2017-04-17T07:35:55.281Z,82.5
2017-04-17T07:36:57.684Z,82.7
2017-04-17T07:38:00.785Z,82.5
2017-04-17T07:39:03.160Z,82.2
2017-04-17T07:40:05.506Z,81.4
2017-04-17T07:41:08.355Z,81.7
2017-04-17T07:42:10.725Z,81.2
2017-04-17T07:43:13.877Z,81.7
2017-04-17T07:44:16.228Z,80.9
2017-04-17T07:45:18.571Z,80.5
2017-04-17T07:46:21.287Z,81.6
2017-04-17T07:47:23.632Z,80.9
2017-04-17T07:48:26.736Z,81
2017-04-17T07:49:29.089Z,80.6
2017-04-17T07:50:31.440Z,81.4
2017-04-17T07:51:34.284Z,81.4
2017-04-17T07:52:36.637Z,80.6
2017-04-17T07:53:39.743Z,80.7
2017-04-17T07:54:42.094Z,80.7
2017-04-17T07:55:44.450Z,80.5
2017-04-17T07:56:47.301Z,80.4
2017-04-17T07:57:49.651Z,79.3
2017-04-17T07:58:52.301Z,80.1
2017-04-17T07:59:54.654Z,80
2017-04-17T08:00:57.507Z,80.4
2017-04-17T08:01:59.854Z,80.9
2017-04-17T08:03:02.705Z,79.7
2017-04-17T08:04:05.307Z,80.1
2017-04-17T08:05:07.523Z,79.4
2017-04-17T08:06:10.606Z,79.1
2017-04-17T08:07:12.815Z,79.8
2017-04-17T08:08:15.397Z,80.5
2017-04-17T08:09:18.616Z,79.1
2017-04-17T08:10:20.467Z,78.7
2017-04-17T08:11:23.319Z,78.7
2017-04-17T08:12:25.668Z,78.4
2017-04-17T08:14:31.172Z,78.9
2017-04-17T08:15:33.751Z,78.9
2017-04-17T08:16:36.117Z,79.3
2017-04-17T08:17:38.832Z,79.1
2017-04-17T08:18:41.190Z,78.9
2017-04-17T08:19:44.208Z,78.3
2017-04-17T08:20:46.552Z,78.3
2017-04-17T08:21:49.409Z,79.2
2017-04-17T08:22:51.756Z,78.1
2017-04-17T08:23:54.605Z,78.2
2017-04-17T08:24:57.258Z,79.6
2017-04-17T08:25:59.701Z,78.7
2017-04-17T08:27:02.048Z,78.9
2017-04-17T08:28:04.899Z,77.2
2017-04-17T08:29:07.117Z,78
2017-04-17T08:30:10.133Z,77.7
2017-04-17T08:31:12.344Z,77.5
2017-04-17T08:32:15.196Z,77.6
2017-04-17T08:33:17.915Z,78.8
2017-04-17T08:34:20.260Z,76.9
2017-04-17T08:35:23.927Z,76.9
2017-04-17T08:36:25.264Z,76
2017-04-17T08:37:28.190Z,75.7
2017-04-17T08:38:30.911Z,77.2
2017-04-17T08:39:33.312Z,76.7
2017-04-17T08:40:36.361Z,75.6
2017-04-17T08:41:38.710Z,73.8
2017-04-17T08:42:41.056Z,73.9
2017-04-17T08:43:43.797Z,74.2
2017-04-17T08:44:46.144Z,72.2
2017-04-17T08:45:49.245Z,69.7
2017-04-17T08:46:51.595Z,72.6
2017-04-17T08:47:53.810Z,72.6
2017-04-17T08:48:57.245Z,71.7
2017-04-17T08:49:59.091Z,72.7
2017-04-17T08:51:02.195Z,73
2017-04-17T08:52:04.540Z,72.4
2017-04-17T08:53:06.756Z,71
2017-04-17T08:54:09.603Z,71.9
2017-04-17T08:55:12.181Z,71.5
2017-04-17T08:56:15.340Z,69.4
2017-04-17T08:57:17.555Z,71
2017-04-17T08:58:19.900Z,70.1
2017-04-17T08:59:22.817Z,69.3
2017-04-17T09:00:25.393Z,66
2017-04-17T09:01:28.041Z,68.3
2017-04-17T09:02:30.388Z,66.8
2017-04-17T09:03:32.841Z,67.6
2017-04-17T09:05:38.509Z,67.1
2017-04-17T09:06:41.155Z,68.1
2017-04-17T09:07:43.499Z,67.8
2017-04-17T09:08:45.843Z,65.5
2017-04-17T09:09:48.693Z,66.8
2017-04-17T09:10:51.039Z,68.2
2017-04-17T09:11:54.139Z,67.8
2017-04-17T09:12:56.499Z,69.5
2017-04-17T09:13:58.847Z,69.2
2017-04-17T09:15:01.690Z,69
2017-04-17T09:16:04.175Z,68.1
2017-04-17T09:17:07.270Z,68.3
2017-04-17T09:18:09.484Z,68.9
2017-04-17T09:19:11.831Z,68.1
2017-04-17T09:20:14.914Z,68.3
2017-04-17T09:21:17.257Z,68.2
2017-04-17T09:22:20.411Z,67.8
2017-04-17T09:23:22.245Z,69.1
2017-04-17T09:24:24.963Z,67.9
2017-04-17T09:25:27.807Z,68.1
2017-04-17T09:26:30.157Z,67.3
2017-04-17T09:27:33.371Z,68.8
2017-04-17T09:28:35.718Z,67.2
2017-04-17T09:29:38.060Z,66.9
2017-04-17T09:30:40.460Z,67.1
2017-04-17T09:31:43.173Z,67.2
2017-04-17T09:32:46.275Z,67.8
2017-04-17T09:33:48.627Z,69.1
2017-04-17T09:34:51.036Z,67.7
2017-04-17T09:35:53.885Z,67.4
2017-04-17T09:36:56.227Z,66.8
2017-04-17T09:37:59.376Z,65.6
2017-04-17T09:39:01.725Z,64
2017-04-17T09:40:04.069Z,63.5
2017-04-17T09:41:06.920Z,62.4
2017-04-17T09:42:09.266Z,61.8
2017-04-17T09:43:12.416Z,62.3
2017-04-17T09:44:14.768Z,63.1
2017-04-17T09:45:17.119Z,63.9
2017-04-17T09:46:19.968Z,63.3
2017-04-17T09:47:22.317Z,65
2017-04-17T09:48:25.466Z,60.7
2017-04-17T09:49:27.317Z,59.8
2017-04-17T09:50:30.167Z,60.5
2017-04-17T09:51:32.513Z,61.8
2017-04-17T09:52:35.370Z,59.8
2017-04-17T09:53:38.078Z,61.4
2017-04-17T09:54:40.430Z,62.5
2017-04-17T09:55:43.281Z,60.3
2017-04-17T09:56:45.628Z,59.3
2017-04-17T09:57:48.474Z,60.2
2017-04-17T09:58:51.076Z,58.1
2017-04-17T09:59:53.764Z,57.1
2017-04-17T10:00:56.112Z,57.5
2017-04-17T10:01:58.960Z,58.5
2017-04-17T10:03:01.231Z,58.3
2017-04-17T10:04:04.241Z,54.4
2017-04-17T10:05:06.594Z,56.4
2017-04-17T10:06:09.447Z,58.7
2017-04-17T10:07:11.860Z,58.8
2017-04-17T10:08:14.220Z,59.2
2017-04-17T10:09:17.190Z,59.9
2017-04-17T10:10:19.535Z,59.9
2017-04-17T10:11:22.246Z,59
2017-04-17T10:12:24.960Z,60.5
2017-04-17T10:13:27.310Z,62.3
2017-04-17T10:14:30.412Z,60.1
2017-04-17T10:15:32.760Z,60.7
2017-04-17T10:16:35.107Z,60.4
2017-04-17T10:17:37.822Z,59.8
2017-04-17T10:18:41.105Z,59.2
2017-04-17T10:19:43.250Z,59.7
2017-04-17T10:20:45.596Z,58
2017-04-17T10:21:48.446Z,56.1
2017-04-17T10:22:50.657Z,56.7
2017-04-17T10:23:53.506Z,57.6
2017-04-17T10:24:56.103Z,60.5
2017-04-17T10:25:58.452Z,57.1
2017-04-17T10:27:01.300Z,55.6
2017-04-17T10:28:03.661Z,57
2017-04-17T10:29:06.390Z,55.5
2017-04-17T10:30:09.493Z,57.7
2017-04-17T10:31:11.841Z,57.2
2017-04-17T10:32:14.186Z,57
2017-04-17T10:33:17.036Z,56.2
2017-04-17T10:34:19.468Z,56
2017-04-17T10:35:22.621Z,56.5
2017-04-17T10:36:24.976Z,56.4
2017-04-17T10:37:27.323Z,55.2
2017-04-17T10:38:30.173Z,54.7
2017-04-17T10:39:32.515Z,54
2017-04-17T10:40:35.633Z,56.3
2017-04-17T10:41:37.840Z,52.6
2017-04-17T10:42:40.553Z,55.1
2017-04-17T10:43:42.901Z,53.7
2017-04-17T10:44:45.758Z,53.6
2017-04-17T10:45:48.406Z,54.5
2017-04-17T10:46:50.771Z,56.8
2017-04-17T10:47:53.621Z,57.4
2017-04-17T10:48:56.528Z,56.2
2017-04-17T10:49:58.372Z,53.4
2017-04-17T10:51:01.525Z,53.9
2017-04-17T10:52:03.869Z,53.6
2017-04-17T10:53:06.214Z,53.6
2017-04-17T10:54:09.063Z,52.8
2017-04-17T10:55:11.411Z,52
2017-04-17T10:56:14.511Z,55.9
2017-04-17T10:57:16.859Z,54.2
2017-04-17T10:58:20.268Z,51.2
2017-04-17T10:59:22.116Z,51.3
2017-04-17T11:00:24.597Z,54.2
2017-04-17T11:01:27.800Z,52.2
2017-04-17T11:03:32.548Z,52.6
2017-04-17T11:04:34.895Z,50.3
2017-04-17T11:05:37.742Z,50.9
2017-04-17T11:06:40.571Z,53.8
2017-04-17T11:07:42.920Z,54.1
2017-04-17T11:09:48.181Z,52.5
2017-04-17T11:10:50.587Z,52.6
2017-04-17T11:11:53.735Z,53.2
2017-04-17T11:12:56.081Z,52.3
2017-04-17T11:13:58.430Z,53
2017-04-17T11:15:01.283Z,54.1
2017-04-17T11:16:04.191Z,54
2017-04-17T11:17:06.840Z,53.8
2017-04-17T11:18:09.187Z,56.5
2017-04-17T11:19:11.544Z,56.3
2017-04-17T11:20:14.260Z,57.2
2017-04-17T11:21:16.607Z,56
2017-04-17T11:22:19.761Z,58.6
2017-04-17T11:23:22.109Z,59.2
2017-04-17T11:24:24.451Z,60.2
2017-04-17T11:25:27.299Z,61.8
2017-04-17T11:26:29.653Z,62.4
2017-04-17T11:27:32.805Z,64.2
2017-04-17T11:28:35.150Z,64.5
2017-04-17T11:29:37.705Z,65.5
2017-04-17T11:30:40.557Z,65.1
2017-04-17T11:31:42.903Z,67.4
2017-04-17T11:32:46.002Z,67.3
2017-04-17T11:33:48.348Z,67.8
2017-04-17T11:34:50.699Z,69
2017-04-17T11:35:53.546Z,69.9
2017-04-17T11:36:55.893Z,70.1
2017-04-17T11:37:59.048Z,71.4
2017-04-17T11:40:03.737Z,73.2
2017-04-17T11:41:06.449Z,74.9
2017-04-17T11:42:08.794Z,74.8
2017-04-17T11:43:11.952Z,75.6
2017-04-17T11:44:14.303Z,76.7
2017-04-17T11:45:16.651Z,76.7
2017-04-17T11:46:19.369Z,76.8
2017-04-17T11:47:22.217Z,78.4
2017-04-17T11:48:24.864Z,78.9
2017-04-17T11:49:27.446Z,78.8
2017-04-17T11:50:29.799Z,79.9
2017-04-17T11:51:32.649Z,79.4
2017-04-17T11:52:35.125Z,80.9
2017-04-17T11:53:37.777Z,80.7
2017-04-17T11:54:40.123Z,81
2017-04-17T11:55:42.969Z,80.8
2017-04-17T11:56:45.321Z,81.7
2017-04-17T11:57:48.048Z,81.9
2017-04-17T11:58:51.206Z,81.5
2017-04-17T11:59:52.915Z,81.4
2017-04-17T12:00:55.762Z,81.9
2017-04-17T12:01:58.608Z,82.3
2017-04-17T12:03:00.957Z,81.6
2017-04-17T12:04:04.250Z,82.6
2017-04-17T12:05:06.091Z,82.8
2017-04-17T12:06:08.936Z,83
2017-04-17T12:07:11.286Z,82.1
2017-04-17T12:08:14.137Z,82.8
2017-04-17T12:09:16.650Z,81.2
2017-04-17T12:11:21.908Z,81.4
2017-04-17T12:12:24.249Z,80.8
2017-04-17T12:13:27.102Z,81.9
2017-04-17T12:14:29.716Z,81
2017-04-17T12:15:32.062Z,80.4
2017-04-17T12:16:34.913Z,81.3
2017-04-17T12:17:37.454Z,80.5
2017-04-17T12:18:40.297Z,79.6
2017-04-17T12:19:42.891Z,80.1
2017-04-17T12:20:45.241Z,81.3
2017-04-17T12:21:48.090Z,80.9
2017-04-17T12:22:50.495Z,81.9
2017-04-17T12:23:53.213Z,80.9
2017-04-17T12:24:55.863Z,81.9
2017-04-17T12:25:58.206Z,82.6
2017-04-17T12:27:01.054Z,81.6
2017-04-17T12:28:03.399Z,82
2017-04-17T12:29:06.112Z,82
2017-04-17T12:30:08.996Z,80.3
2017-04-17T12:31:11.344Z,80.2
2017-04-17T12:32:14.764Z,78.7
2017-04-17T12:33:17.016Z,78.2
2017-04-17T12:34:19.364Z,79.3
2017-04-17T12:35:22.015Z,79.4
2017-04-17T12:36:24.364Z,80.2
2017-04-17T12:37:27.210Z,80.1
2017-04-17T12:38:29.423Z,80.9
2017-04-17T12:39:32.274Z,81.1
2017-04-17T12:40:35.299Z,80.8
2017-04-17T12:41:37.333Z,81.2
2017-04-17T12:42:40.245Z,80.1
2017-04-17T12:43:42.598Z,80.2
2017-04-17T12:44:44.945Z,80.4
2017-04-17T12:45:48.097Z,79.6
2017-04-17T12:46:50.306Z,80.5
2017-04-17T12:47:53.156Z,80.5
2017-04-17T12:48:55.507Z,80.7
2017-04-17T12:49:58.363Z,81.4
2017-04-17T12:51:00.964Z,81
2017-04-17T12:52:03.311Z,80.9
2017-04-17T12:53:06.160Z,81.3
2017-04-17T12:54:08.504Z,80.8
2017-04-17T12:55:11.355Z,80.4
2017-04-17T12:56:14.003Z,78
2017-04-17T12:57:16.286Z,78.7
2017-04-17T12:58:19.136Z,78.2
2017-04-17T12:59:21.483Z,77.5
2017-04-17T13:00:24.329Z,78.1
2017-04-17T13:01:27.344Z,77.7
2017-04-17T13:02:29.186Z,77.3
2017-04-17T13:03:32.037Z,78.4
2017-04-17T13:04:34.387Z,76.2
2017-04-17T13:05:37.238Z,75.6
2017-04-17T13:06:40.251Z,76.1
2017-04-17T13:07:42.296Z,77.3
2017-04-17T13:08:45.142Z,76.4
2017-04-17T13:09:47.488Z,76.8
2017-04-17T13:10:50.198Z,76.5
2017-04-17T13:11:53.349Z,76.8
2017-04-17T13:12:55.707Z,77
2017-04-17T13:13:58.059Z,78.2
2017-04-17T13:15:00.915Z,77.8
2017-04-17T13:16:03.261Z,78
2017-04-17T13:17:06.411Z,76.5
2017-04-17T13:18:08.253Z,77.3
2017-04-17T13:19:11.104Z,74.2
2017-04-17T13:20:13.820Z,75.5
2017-04-17T13:21:16.170Z,76.3
2017-04-17T13:23:21.726Z,75.1
2017-04-17T13:24:24.073Z,73.7
2017-04-17T13:25:26.927Z,73.5
2017-04-17T13:26:29.269Z,74.6
2017-04-17T13:27:32.127Z,75.3
2017-04-17T13:28:34.777Z,76.1
2017-04-17T13:29:37.125Z,74.8
2017-04-17T13:30:39.469Z,74
2017-04-17T13:31:42.253Z,72.3
2017-04-17T13:32:45.102Z,73.2
2017-04-17T13:33:47.752Z,73.8
2017-04-17T13:34:50.096Z,75
2017-04-17T13:35:52.953Z,73.9
2017-04-17T13:36:55.300Z,75.2
2017-04-17T13:37:58.154Z,73.5
2017-04-17T13:39:00.757Z,73.3
2017-04-17T13:40:02.970Z,70
2017-04-17T13:41:05.824Z,67.7
2017-04-17T13:42:08.169Z,67.6
2017-04-17T13:43:11.018Z,69.1
2017-04-17T13:44:13.620Z,69
2017-04-17T13:45:15.974Z,68.6
2017-04-17T13:46:18.825Z,67.5
2017-04-17T13:47:21.037Z,68.8
2017-04-17T13:48:23.883Z,65.2
2017-04-17T13:49:26.986Z,68.6
2017-04-17T13:50:29.337Z,64
2017-04-17T13:51:31.680Z,65.1
2017-04-17T13:52:34.393Z,64.5
2017-04-17T13:53:37.237Z,63.9
2017-04-17T13:54:39.698Z,67
2017-04-17T13:55:42.415Z,65.3
2017-04-17T13:56:45.126Z,65.3
2017-04-17T13:57:47.471Z,67.7
2017-04-17T13:58:50.319Z,66.1
2017-04-17T13:59:52.970Z,66.6
2017-04-17T14:00:55.434Z,67.8
2017-04-17T14:01:57.785Z,68.5
2017-04-17T14:03:00.635Z,67.7
2017-04-17T14:04:02.979Z,67.7
2017-04-17T14:05:06.081Z,68.3
2017-04-17T14:06:08.427Z,66.8
2017-04-17T14:07:10.772Z,65.1
2017-04-17T14:08:14.189Z,64.6
2017-04-17T14:09:16.036Z,65
2017-04-17T14:10:19.140Z,66.7
2017-04-17T14:11:21.489Z,66.3
2017-04-17T14:12:23.835Z,63.4
2017-04-17T14:13:26.688Z,63
2017-04-17T14:14:29.034Z,63.7
2017-04-17T14:15:32.188Z,65.6
2017-04-17T14:16:34.537Z,66.4
2017-04-17T14:17:36.883Z,66.9
2017-04-17T14:18:39.787Z,66.6
2017-04-17T14:19:42.504Z,65.6
2017-04-17T14:20:45.153Z,65.7
2017-04-17T14:21:47.497Z,66.2
2017-04-17T14:22:50.079Z,63.8
2017-04-17T14:23:52.796Z,64.1